createdAt,value
2017-05-08T00:00:48.436Z,12
2017-05-08T00:02:01.229Z,12
2017-05-08T00:03:14.026Z,12
2017-05-08T00:04:26.816Z,12
2017-05-08T00:05:39.600Z,8
2017-05-08T00:06:52.422Z,12
2017-05-08T00:08:05.208Z,12
2017-05-08T00:09:17.027Z,12
2017-05-08T00:10:29.807Z,12
2017-05-08T00:11:42.112Z,12
2017-05-08T00:12:55.199Z,12
2017-05-08T00:14:07.981Z,12
2017-05-08T00:15:20.286Z,12
2017-05-08T00:16:33.067Z,12
2017-05-08T00:17:45.378Z,12
2017-05-08T00:18:58.174Z,12
2017-05-08T00:20:10.473Z,12
2017-05-08T00:21:22.293Z,12
2017-05-08T00:22:35.080Z,12
2017-05-08T00:23:47.864Z,12
2017-05-08T00:25:00.652Z,12
2017-05-08T00:26:12.953Z,12
2017-05-08T00:27:25.735Z,12
2017-05-08T00:28:38.713Z,12
2017-05-08T00:29:51.498Z,12
2017-05-08T00:31:04.282Z,12
2017-05-08T00:32:17.070Z,12
2017-05-08T00:33:29.375Z,12
2017-05-08T00:34:42.361Z,12
2017-05-08T00:35:55.148Z,12
2017-05-08T00:37:07.936Z,4
2017-05-08T00:38:20.713Z,4
2017-05-08T00:39:33.320Z,4
2017-05-08T00:40:45.621Z,16
2017-05-08T00:41:58.407Z,12
2017-05-08T00:43:10.709Z,12
2017-05-08T00:44:23.011Z,12
2017-05-08T00:45:35.999Z,12
2017-05-08T00:46:47.818Z,12
2017-05-08T00:48:00.607Z,12
2017-05-08T00:49:12.914Z,12
2017-05-08T00:50:25.228Z,12
2017-05-08T00:51:38.018Z,12
2017-05-08T00:52:50.818Z,12
2017-05-08T00:54:03.131Z,12
2017-05-08T00:55:15.437Z,12
2017-05-08T00:56:27.982Z,12
2017-05-08T00:57:40.805Z,12
2017-05-08T00:58:53.729Z,12
2017-05-08T01:00:06.198Z,12
2017-05-08T01:01:19.260Z,12
2017-05-08T01:02:31.643Z,12
2017-05-08T01:03:44.628Z,12
2017-05-08T01:04:57.569Z,12
2017-05-08T01:06:10.393Z,12
2017-05-08T01:07:23.213Z,12
2017-05-08T01:08:35.555Z,12
2017-05-08T01:09:48.454Z,16
2017-05-08T01:11:01.273Z,12
2017-05-08T01:12:14.133Z,12
2017-05-08T01:13:27.009Z,12
2017-05-08T01:14:40.027Z,12
2017-05-08T01:15:53.045Z,12
2017-05-08T01:17:06.388Z,12
2017-05-08T01:18:18.530Z,12
2017-05-08T01:19:31.408Z,12
2017-05-08T01:20:44.447Z,12
2017-05-08T01:21:57.425Z,12
2017-05-08T01:23:09.705Z,12
2017-05-08T01:24:22.289Z,12
2017-05-08T01:25:34.928Z,12
2017-05-08T01:26:48.019Z,12
2017-05-08T01:28:00.867Z,12
2017-05-08T01:29:14.551Z,12
2017-05-08T01:30:27.495Z,12
2017-05-08T01:31:39.893Z,12
2017-05-08T01:32:52.765Z,12
2017-05-08T01:34:06.134Z,12
2017-05-08T01:35:19.379Z,12
2017-05-08T01:36:32.734Z,12
2017-05-08T01:37:45.738Z,12
2017-05-08T01:38:58.522Z,12
2017-05-08T01:40:11.317Z,12
2017-05-08T01:41:24.098Z,12
2017-05-08T01:42:36.897Z,12
2017-05-08T01:43:49.199Z,12
2017-05-08T01:45:01.984Z,12
2017-05-08T01:46:14.289Z,12
2017-05-08T01:47:27.071Z,12
2017-05-08T01:48:39.855Z,12
2017-05-08T01:49:52.633Z,12
2017-05-08T01:51:05.623Z,12
2017-05-08T01:52:18.404Z,12
2017-05-08T01:53:31.187Z,12
2017-05-08T01:54:43.972Z,12
2017-05-08T01:55:56.755Z,12
2017-05-08T01:57:09.538Z,12
2017-05-08T01:58:22.319Z,12
2017-05-08T01:59:35.105Z,12
2017-05-08T02:00:47.411Z,12
2017-05-08T02:02:00.196Z,12
2017-05-08T02:03:12.978Z,12
2017-05-08T02:04:25.280Z,12
2017-05-08T02:05:38.066Z,12
2017-05-08T02:06:51.052Z,12
2017-05-08T02:08:03.837Z,12
2017-05-08T02:09:16.621Z,12
2017-05-08T02:10:29.403Z,12
2017-05-08T02:11:42.188Z,12
2017-05-08T02:12:55.180Z,12
2017-05-08T02:14:07.968Z,12
2017-05-08T02:15:20.754Z,12
2017-05-08T02:16:33.538Z,12
2017-05-08T02:17:46.319Z,12
2017-05-08T02:18:58.627Z,12
2017-05-08T02:20:10.926Z,12
2017-05-08T02:21:23.709Z,12
2017-05-08T02:22:36.493Z,12
2017-05-08T02:23:49.574Z,12
2017-05-08T02:25:02.355Z,12
2017-05-08T02:26:15.138Z,12
2017-05-08T02:27:27.938Z,12
2017-05-08T02:28:40.922Z,12
2017-05-08T02:29:53.223Z,12
2017-05-08T02:31:05.522Z,12
2017-05-08T02:32:18.306Z,12
2017-05-08T02:33:30.608Z,12
2017-05-08T02:34:42.912Z,12
2017-05-08T02:35:55.700Z,12
2017-05-08T02:37:08.481Z,12
2017-05-08T02:38:20.786Z,12
2017-05-08T02:39:33.881Z,12
2017-05-08T02:40:46.667Z,12
2017-05-08T02:41:59.455Z,12
2017-05-08T02:43:12.237Z,12
2017-05-08T02:44:24.533Z,12
2017-05-08T02:45:37.322Z,12
2017-05-08T02:46:49.627Z,12
2017-05-08T02:48:02.405Z,12
2017-05-08T02:49:14.718Z,12
2017-05-08T02:50:27.699Z,12
2017-05-08T02:51:40.483Z,12
2017-05-08T02:52:53.264Z,12
2017-05-08T02:54:05.565Z,12
2017-05-08T02:55:18.352Z,12
2017-05-08T02:56:31.141Z,12
2017-05-08T02:57:43.926Z,12
2017-05-08T02:58:56.748Z,12
2017-05-08T03:00:09.547Z,12
2017-05-08T03:01:22.331Z,12
2017-05-08T03:02:35.129Z,12
2017-05-08T03:03:47.916Z,12
2017-05-08T03:05:00.705Z,12
2017-05-08T03:06:13.491Z,12
2017-05-08T03:07:26.306Z,12
2017-05-08T03:08:39.095Z,12
2017-05-08T03:09:51.883Z,8
2017-05-08T03:11:04.680Z,12
2017-05-08T03:12:17.182Z,8
2017-05-08T03:13:29.965Z,12
2017-05-08T03:14:42.268Z,12
2017-05-08T03:15:55.061Z,12
2017-05-08T03:17:07.844Z,12
2017-05-08T03:18:20.186Z,4
2017-05-08T03:19:32.970Z,12
2017-05-08T03:20:45.755Z,12
2017-05-08T03:21:58.538Z,16
2017-05-08T03:23:11.527Z,12
2017-05-08T03:24:24.313Z,4
2017-05-08T03:25:36.138Z,4
2017-05-08T03:26:48.918Z,4
2017-05-08T03:28:01.226Z,12
2017-05-08T03:29:14.022Z,16
2017-05-08T03:30:26.834Z,12
2017-05-08T03:31:39.134Z,8
2017-05-08T03:32:51.925Z,12
2017-05-08T03:34:04.431Z,8
2017-05-08T03:35:16.734Z,12
2017-05-08T03:36:29.523Z,12
2017-05-08T03:37:41.828Z,12
2017-05-08T03:38:54.612Z,12
2017-05-08T03:40:07.401Z,12
2017-05-08T03:41:18.746Z,12
2017-05-08T03:42:31.532Z,12
2017-05-08T03:43:44.316Z,12
2017-05-08T03:44:57.104Z,12
2017-05-08T03:46:09.889Z,12
2017-05-08T03:47:22.188Z,12
2017-05-08T03:48:34.970Z,12
2017-05-08T03:49:47.756Z,12
2017-05-08T03:51:00.838Z,12
2017-05-08T03:52:13.136Z,12
2017-05-08T03:53:25.920Z,12
2017-05-08T03:54:38.220Z,8
2017-05-08T03:55:51.000Z,12
2017-05-08T03:57:03.791Z,12
2017-05-08T03:58:16.576Z,12
2017-05-08T03:59:29.360Z,12
2017-05-08T04:00:42.143Z,4
2017-05-08T04:01:55.230Z,12
2017-05-08T04:03:08.015Z,12
2017-05-08T04:04:20.318Z,12
2017-05-08T04:05:33.099Z,12
2017-05-08T04:06:45.397Z,12
2017-05-08T04:07:58.179Z,12
2017-05-08T04:09:10.486Z,12
2017-05-08T04:10:23.273Z,12
2017-05-08T04:11:36.053Z,12
2017-05-08T04:12:49.045Z,12
2017-05-08T04:14:01.349Z,12
2017-05-08T04:15:14.145Z,12
2017-05-08T04:16:26.929Z,12
2017-05-08T04:17:39.711Z,12
2017-05-08T04:18:52.012Z,12
2017-05-08T04:20:04.791Z,12
2017-05-08T04:21:17.575Z,12
2017-05-08T04:22:30.363Z,12
2017-05-08T04:23:43.147Z,0
2017-05-08T04:24:55.451Z,4
2017-05-08T04:26:08.235Z,4
2017-05-08T04:27:20.057Z,4
2017-05-08T04:28:33.049Z,16
2017-05-08T04:29:45.836Z,16
2017-05-08T04:30:58.616Z,12
2017-05-08T04:32:11.399Z,12
2017-05-08T04:33:23.700Z,4
2017-05-08T04:34:36.517Z,4
2017-05-08T04:35:49.297Z,4
2017-05-08T04:37:02.077Z,12
2017-05-08T04:38:14.377Z,16
2017-05-08T04:39:27.168Z,12
2017-05-08T04:40:39.966Z,12
2017-05-08T04:41:52.749Z,12
2017-05-08T04:43:05.533Z,12
2017-05-08T04:44:17.830Z,12
2017-05-08T04:45:30.919Z,12
2017-05-08T04:46:43.701Z,12
2017-05-08T04:47:56.008Z,12
2017-05-08T04:49:08.311Z,12
2017-05-08T04:50:20.610Z,12
2017-05-08T04:51:33.426Z,12
2017-05-08T04:52:46.210Z,16
2017-05-08T04:53:58.994Z,12
2017-05-08T04:55:11.781Z,12
2017-05-08T04:56:24.765Z,12
2017-05-08T04:57:37.546Z,12
2017-05-08T04:58:50.336Z,12
2017-05-08T05:00:02.634Z,12
2017-05-08T05:01:15.616Z,12
2017-05-08T05:02:28.394Z,12
2017-05-08T05:03:40.696Z,12
2017-05-08T05:04:53.479Z,12
2017-05-08T05:06:06.263Z,12
2017-05-08T05:07:18.392Z,12
2017-05-08T05:08:31.177Z,12
2017-05-08T05:09:43.480Z,8
2017-05-08T05:10:56.262Z,12
2017-05-08T05:12:09.255Z,12
2017-05-08T05:13:22.050Z,4
2017-05-08T05:14:34.832Z,4
2017-05-08T05:15:47.612Z,12
2017-05-08T05:16:59.920Z,16
2017-05-08T05:18:13.002Z,16
2017-05-08T05:19:25.345Z,16
2017-05-08T05:20:38.133Z,12
2017-05-08T05:21:50.924Z,8
2017-05-08T05:23:03.535Z,4
2017-05-08T05:24:15.847Z,4
2017-05-08T05:25:28.256Z,4
2017-05-08T05:26:41.053Z,16
2017-05-08T05:27:53.850Z,16
2017-05-08T05:29:05.680Z,12
2017-05-08T05:30:18.001Z,4
2017-05-08T05:31:30.797Z,4
2017-05-08T05:32:43.587Z,4
2017-05-08T05:33:55.902Z,16
2017-05-08T05:35:08.697Z,12
2017-05-08T05:36:21.037Z,12
2017-05-08T05:37:33.827Z,12
2017-05-08T05:38:46.629Z,12
2017-05-08T05:39:58.663Z,12
2017-05-08T05:41:11.460Z,12
2017-05-08T05:42:23.290Z,12
2017-05-08T05:43:35.602Z,12
2017-05-08T05:44:48.118Z,12
2017-05-08T05:46:00.914Z,12
2017-05-08T05:47:13.218Z,12
2017-05-08T05:48:25.532Z,12
2017-05-08T05:49:38.326Z,12
2017-05-08T05:50:51.414Z,12
2017-05-08T05:52:04.206Z,12
2017-05-08T05:53:16.517Z,12
2017-05-08T05:54:29.305Z,12
2017-05-08T05:55:42.303Z,12
2017-05-08T05:56:55.103Z,12
2017-05-08T05:58:07.415Z,12
2017-05-08T05:59:20.216Z,12
2017-05-08T06:00:33.010Z,4
2017-05-08T06:01:45.636Z,4
2017-05-08T06:02:58.431Z,12
2017-05-08T06:04:11.223Z,16
2017-05-08T06:05:23.525Z,12
2017-05-08T06:06:35.824Z,12
2017-05-08T06:07:48.130Z,12
2017-05-08T06:09:00.926Z,12
2017-05-08T06:10:13.707Z,12
2017-05-08T06:11:25.535Z,12
2017-05-08T06:12:38.618Z,4
2017-05-08T06:13:51.403Z,4
2017-05-08T06:15:04.185Z,12
2017-05-08T06:16:16.480Z,12
2017-05-08T06:17:28.781Z,12
2017-05-08T06:18:41.084Z,12
2017-05-08T06:19:53.389Z,12
2017-05-08T06:21:05.693Z,12
2017-05-08T06:22:18.002Z,12
2017-05-08T06:23:31.098Z,12
2017-05-08T06:24:43.879Z,12
2017-05-08T06:25:56.180Z,12
2017-05-08T06:27:08.964Z,4
2017-05-08T06:28:21.751Z,4
2017-05-08T06:29:34.535Z,4
2017-05-08T06:30:47.315Z,16
2017-05-08T06:32:00.098Z,16
2017-05-08T06:33:12.874Z,12
2017-05-08T06:34:25.657Z,12
2017-05-08T06:35:38.448Z,4
2017-05-08T06:36:51.227Z,4
2017-05-08T06:38:04.014Z,4
2017-05-08T06:39:16.514Z,12
2017-05-08T06:40:29.293Z,16
2017-05-08T06:41:42.079Z,12
2017-05-08T06:42:54.857Z,12
2017-05-08T06:44:07.637Z,12
2017-05-08T06:45:20.447Z,12
2017-05-08T06:46:33.229Z,4
2017-05-08T06:47:46.008Z,4
2017-05-08T06:48:58.309Z,4
2017-05-08T06:50:11.115Z,4
2017-05-08T06:51:23.911Z,16
2017-05-08T06:52:36.702Z,16
2017-05-08T06:53:49.480Z,16
2017-05-08T06:55:01.794Z,4
2017-05-08T06:56:14.394Z,4
2017-05-08T06:57:26.699Z,12
2017-05-08T06:58:39.484Z,12
2017-05-08T06:59:52.269Z,12
2017-05-08T07:01:05.358Z,12
2017-05-08T07:02:17.661Z,12
2017-05-08T07:03:30.447Z,12
2017-05-08T07:04:43.227Z,12
2017-05-08T07:05:56.008Z,12
2017-05-08T07:07:08.785Z,12
2017-05-08T07:08:21.079Z,12
2017-05-08T07:09:33.862Z,12
2017-05-08T07:10:46.647Z,12
2017-05-08T07:11:58.948Z,12
2017-05-08T07:13:11.727Z,12
2017-05-08T07:14:24.505Z,12
2017-05-08T07:15:37.318Z,8
2017-05-08T07:16:50.105Z,8
2017-05-08T07:18:02.405Z,8
2017-05-08T07:19:15.190Z,4
2017-05-08T07:20:27.969Z,4
2017-05-08T07:21:40.272Z,12
2017-05-08T07:22:53.351Z,16
2017-05-08T07:24:06.135Z,12
2017-05-08T07:25:18.918Z,12
2017-05-08T07:26:31.734Z,12
2017-05-08T07:27:44.032Z,12
2017-05-08T07:28:56.824Z,12
2017-05-08T07:30:09.607Z,12
2017-05-08T07:31:22.384Z,12
2017-05-08T07:32:35.176Z,12
2017-05-08T07:33:47.473Z,12
2017-05-08T07:34:59.768Z,12
2017-05-08T07:36:12.061Z,12
2017-05-08T07:37:24.847Z,12
2017-05-08T07:38:37.627Z,12
2017-05-08T07:39:49.927Z,12
2017-05-08T07:41:02.227Z,4
2017-05-08T07:42:15.007Z,4
2017-05-08T07:43:27.801Z,12
2017-05-08T07:44:40.101Z,12
2017-05-08T07:45:52.399Z,12
2017-05-08T07:47:04.694Z,12
2017-05-08T07:48:17.470Z,12
2017-05-08T07:49:29.765Z,4
2017-05-08T07:50:41.881Z,4
2017-05-08T07:51:54.180Z,12
2017-05-08T07:53:06.967Z,16
2017-05-08T07:54:19.746Z,16
2017-05-08T07:55:32.044Z,12
2017-05-08T07:56:44.824Z,4
2017-05-08T07:57:56.643Z,4
2017-05-08T07:59:09.425Z,4
2017-05-08T08:00:22.200Z,12
2017-05-08T08:01:34.981Z,16
2017-05-08T08:02:47.760Z,12
2017-05-08T08:03:58.615Z,12
2017-05-08T08:05:11.392Z,4
2017-05-08T08:06:24.374Z,12
2017-05-08T08:07:37.157Z,12
2017-05-08T08:08:49.939Z,12
2017-05-08T08:10:01.758Z,12
2017-05-08T08:11:14.538Z,12
2017-05-08T08:12:27.323Z,12
2017-05-08T08:13:39.629Z,12
2017-05-08T08:14:52.406Z,12
2017-05-08T08:16:04.706Z,8
2017-05-08T08:17:17.685Z,12
2017-05-08T08:18:29.505Z,12
2017-05-08T08:19:42.284Z,12
2017-05-08T08:20:55.075Z,12
2017-05-08T08:22:07.904Z,8
2017-05-08T08:23:20.212Z,16
2017-05-08T08:24:32.996Z,12
2017-05-08T08:25:45.793Z,12
2017-05-08T08:26:58.593Z,12
2017-05-08T08:28:11.392Z,12
2017-05-08T08:29:23.225Z,12
2017-05-08T08:30:36.028Z,12
2017-05-08T08:31:47.861Z,12
2017-05-08T08:33:00.167Z,12
2017-05-08T08:34:13.250Z,12
2017-05-08T08:35:25.562Z,4
2017-05-08T08:36:38.347Z,4
2017-05-08T08:37:50.181Z,16
2017-05-08T08:39:02.975Z,12
2017-05-08T08:40:15.282Z,12
2017-05-08T08:41:28.074Z,12
2017-05-08T08:42:40.866Z,8
2017-05-08T08:43:53.176Z,4
2017-05-08T08:45:05.479Z,4
2017-05-08T08:46:17.782Z,4
2017-05-08T08:47:30.570Z,4
2017-05-08T08:48:42.873Z,12
2017-05-08T08:49:54.890Z,12
2017-05-08T08:51:07.672Z,12
2017-05-08T08:52:19.969Z,12
2017-05-08T08:53:32.287Z,4
2017-05-08T08:54:44.104Z,4
2017-05-08T08:55:56.892Z,12
2017-05-08T08:57:09.683Z,12
2017-05-08T08:58:21.991Z,12
2017-05-08T08:59:34.779Z,12
2017-05-08T09:00:47.088Z,12
2017-05-08T09:01:59.589Z,12
2017-05-08T09:03:12.387Z,12
2017-05-08T09:04:25.210Z,12
2017-05-08T09:05:37.988Z,4
2017-05-08T09:06:49.321Z,4
2017-05-08T09:08:01.152Z,4
2017-05-08T09:09:13.938Z,12
2017-05-08T09:10:26.234Z,16
2017-05-08T09:11:39.014Z,12
2017-05-08T09:12:51.994Z,12
2017-05-08T09:14:03.838Z,4
2017-05-08T09:15:16.133Z,8
2017-05-08T09:16:28.428Z,12
2017-05-08T09:17:41.210Z,16
2017-05-08T09:18:53.514Z,8
2017-05-08T09:20:05.816Z,16
2017-05-08T09:21:18.627Z,16
2017-05-08T09:22:31.407Z,12
2017-05-08T09:23:44.187Z,16
2017-05-08T09:24:56.972Z,16
2017-05-08T09:26:08.793Z,20
2017-05-08T09:27:21.570Z,8
2017-05-08T09:28:34.660Z,8
2017-05-08T09:29:46.956Z,12
2017-05-08T09:30:58.777Z,16
2017-05-08T09:32:11.554Z,20
2017-05-08T09:33:23.854Z,20
2017-05-08T09:34:36.459Z,20
2017-05-08T09:35:48.758Z,24
2017-05-08T09:37:01.062Z,28
2017-05-08T09:38:12.396Z,28
2017-05-08T09:39:24.698Z,32
2017-05-08T09:40:37.480Z,32
2017-05-08T09:41:49.780Z,36
2017-05-08T09:43:01.598Z,44
2017-05-08T09:44:14.385Z,44
2017-05-08T09:45:27.165Z,48
2017-05-08T09:46:39.946Z,48
2017-05-08T09:47:52.726Z,52
2017-05-08T09:49:05.508Z,56
2017-05-08T09:50:18.104Z,56
2017-05-08T09:51:29.920Z,60
2017-05-08T09:52:42.218Z,60
2017-05-08T09:53:55.001Z,64
2017-05-08T09:55:07.296Z,68
2017-05-08T09:56:19.794Z,68
2017-05-08T09:57:32.096Z,72
2017-05-08T09:58:44.873Z,76
2017-05-08T09:59:56.689Z,76
2017-05-08T10:01:09.188Z,76
2017-05-08T10:02:21.483Z,80
2017-05-08T10:03:34.260Z,80
2017-05-08T10:04:47.044Z,80
2017-05-08T10:05:59.347Z,80
2017-05-08T10:07:11.462Z,84
2017-05-08T10:08:23.274Z,84
2017-05-08T10:09:36.054Z,88
2017-05-08T10:10:48.350Z,92
2017-05-08T10:12:01.328Z,96
2017-05-08T10:13:14.112Z,100
2017-05-08T10:14:26.891Z,104
2017-05-08T10:15:39.192Z,104
2017-05-08T10:16:51.966Z,104
2017-05-08T10:18:04.261Z,108
2017-05-08T10:19:17.058Z,108
2017-05-08T10:20:29.359Z,112
2017-05-08T10:21:41.657Z,112
2017-05-08T10:22:53.961Z,116
2017-05-08T10:24:06.736Z,116
2017-05-08T10:25:19.547Z,120
2017-05-08T10:26:31.850Z,124
2017-05-08T10:27:44.632Z,124
2017-05-08T10:28:56.647Z,124
2017-05-08T10:30:08.946Z,128
2017-05-08T10:31:21.240Z,132
2017-05-08T10:32:33.539Z,132
2017-05-08T10:33:45.837Z,136
2017-05-08T10:34:58.138Z,132
2017-05-08T10:36:10.932Z,136
2017-05-08T10:37:23.725Z,140
2017-05-08T10:38:36.506Z,140
2017-05-08T10:39:48.811Z,140
2017-05-08T10:41:01.602Z,144
2017-05-08T10:42:14.392Z,148
2017-05-08T10:43:27.180Z,148
2017-05-08T10:44:39.968Z,148
2017-05-08T10:45:52.761Z,148
2017-05-08T10:47:05.104Z,148
2017-05-08T10:48:16.938Z,152
2017-05-08T10:49:29.719Z,156
2017-05-08T10:50:41.547Z,156
2017-05-08T10:51:53.859Z,156
2017-05-08T10:53:06.645Z,160
2017-05-08T10:54:18.460Z,156
2017-05-08T10:55:30.768Z,160
2017-05-08T10:56:43.081Z,164
2017-05-08T10:57:55.872Z,164
2017-05-08T10:59:08.169Z,168
2017-05-08T11:00:20.471Z,168
2017-05-08T11:01:33.463Z,168
2017-05-08T11:02:45.775Z,172
2017-05-08T11:03:57.597Z,168
2017-05-08T11:05:10.377Z,172
2017-05-08T11:06:22.210Z,172
2017-05-08T11:07:35.004Z,176
2017-05-08T11:08:46.817Z,176
2017-05-08T11:09:58.153Z,180
2017-05-08T11:11:10.939Z,184
2017-05-08T11:12:23.731Z,184
2017-05-08T11:13:36.515Z,184
2017-05-08T11:14:48.815Z,192
2017-05-08T11:16:01.125Z,196
2017-05-08T11:17:13.917Z,196
2017-05-08T11:18:26.227Z,204
2017-05-08T11:19:38.044Z,208
2017-05-08T11:20:50.338Z,212
2017-05-08T11:22:02.635Z,216
2017-05-08T11:23:15.134Z,216
2017-05-08T11:24:26.954Z,224
2017-05-08T11:25:38.296Z,232
2017-05-08T11:26:50.600Z,244
2017-05-08T11:28:02.423Z,288
2017-05-08T11:29:15.208Z,436
2017-05-08T11:30:27.509Z,616
2017-05-08T11:31:40.289Z,780
2017-05-08T11:32:53.081Z,1056
2017-05-08T11:34:05.380Z,1256
2017-05-08T11:35:18.158Z,1324
2017-05-08T11:36:30.458Z,1372
2017-05-08T11:37:43.244Z,1384
2017-05-08T11:38:56.036Z,1392
2017-05-08T11:40:07.891Z,1420
2017-05-08T11:41:20.190Z,1444
2017-05-08T11:42:32.503Z,1488
2017-05-08T11:43:44.810Z,1508
2017-05-08T11:44:56.631Z,1520
2017-05-08T11:46:08.448Z,1376
2017-05-08T11:47:19.786Z,1500
2017-05-08T11:48:32.097Z,1492
2017-05-08T11:49:44.882Z,1520
2017-05-08T11:50:57.183Z,1568
2017-05-08T11:52:09.021Z,1552
2017-05-08T11:53:21.803Z,1548
2017-05-08T11:54:34.599Z,1588
2017-05-08T11:55:46.948Z,1584
2017-05-08T11:56:59.553Z,1612
2017-05-08T11:58:11.861Z,1556
2017-05-08T11:59:23.686Z,1628
2017-05-08T12:00:35.996Z,1668
2017-05-08T12:01:48.781Z,1648
2017-05-08T12:03:00.605Z,1668
2017-05-08T12:04:13.390Z,1728
2017-05-08T12:05:25.707Z,1732
2017-05-08T12:06:38.011Z,1740
2017-05-08T12:07:49.353Z,1712
2017-05-08T12:09:02.142Z,1776
2017-05-08T12:10:14.928Z,1812
2017-05-08T12:11:27.713Z,1784
2017-05-08T12:12:40.532Z,1788
2017-05-08T12:13:52.355Z,1760
2017-05-08T12:15:05.135Z,1784
2017-05-08T12:16:17.436Z,1844
2017-05-08T12:17:29.768Z,1864
2017-05-08T12:18:41.590Z,1860
2017-05-08T12:19:53.901Z,1840
2017-05-08T12:21:06.206Z,1880
2017-05-08T12:22:18.993Z,1884
2017-05-08T12:23:31.783Z,1896
2017-05-08T12:24:44.570Z,1920
2017-05-08T12:25:56.872Z,1860
2017-05-08T12:27:09.662Z,1852
2017-05-08T12:28:22.454Z,1872
2017-05-08T12:29:35.236Z,1836
2017-05-08T12:30:48.021Z,1880
2017-05-08T12:32:00.329Z,1900
2017-05-08T12:33:12.647Z,1892
2017-05-08T12:34:24.951Z,1880
2017-05-08T12:35:37.735Z,1832
2017-05-08T12:36:50.040Z,1796
2017-05-08T12:38:02.343Z,1776
2017-05-08T12:39:14.563Z,1832
2017-05-08T12:40:26.391Z,1788
2017-05-08T12:41:39.186Z,1852
2017-05-08T12:42:52.020Z,1796
2017-05-08T12:44:04.331Z,1800
2017-05-08T12:45:31.203Z,1740
2017-05-08T12:46:43.035Z,1740
2017-05-08T12:47:55.825Z,1632
2017-05-08T12:50:35.050Z,1680
2017-05-08T12:51:47.892Z,1704
2017-05-08T12:53:00.213Z,1704
2017-05-08T12:54:12.532Z,1712
2017-05-08T12:55:24.847Z,1708
2017-05-08T12:56:37.680Z,1728
2017-05-08T12:57:50.476Z,1724
2017-05-08T12:59:03.263Z,1728
2017-05-08T13:00:15.093Z,1700
2017-05-08T13:01:27.465Z,1720
2017-05-08T13:02:40.270Z,1724
2017-05-08T13:03:53.057Z,1748
2017-05-08T13:05:05.364Z,1764
2017-05-08T13:06:17.668Z,1740
2017-05-08T13:07:29.499Z,1756
2017-05-08T13:08:41.807Z,1744
2017-05-08T13:09:54.109Z,1748
2017-05-08T13:11:06.418Z,1740
2017-05-08T13:12:19.200Z,1736
2017-05-08T13:13:31.987Z,1716
2017-05-08T13:14:44.769Z,1696
2017-05-08T13:15:57.555Z,1720
2017-05-08T13:17:10.342Z,1688
2017-05-08T13:18:23.142Z,1628
2017-05-08T13:19:35.447Z,1648
2017-05-08T13:20:47.751Z,1652
2017-05-08T13:22:00.540Z,1604
2017-05-08T13:23:12.395Z,1588
2017-05-08T13:24:25.186Z,1648
2017-05-08T13:25:37.491Z,1664
2017-05-08T13:26:50.280Z,1648
2017-05-08T13:28:03.070Z,1652
2017-05-08T13:29:15.863Z,1652
2017-05-08T13:30:28.655Z,1656
2017-05-08T13:31:41.440Z,1640
2017-05-08T13:32:54.234Z,1632
2017-05-08T13:34:07.027Z,1620
2017-05-08T13:35:19.831Z,1632
2017-05-08T13:36:32.144Z,1608
2017-05-08T13:37:44.945Z,1576
2017-05-08T13:38:57.899Z,1576
2017-05-08T13:40:10.693Z,1608
2017-05-08T13:41:23.010Z,1592
2017-05-08T13:42:35.803Z,1712
2017-05-08T13:43:48.119Z,1612
2017-05-08T13:45:00.914Z,1620
2017-05-08T13:46:12.940Z,1604
2017-05-08T13:47:24.764Z,1612
2017-05-08T13:48:37.072Z,1620
2017-05-08T13:49:49.868Z,1624
2017-05-08T13:51:02.656Z,1612
2017-05-08T13:52:15.462Z,1604
2017-05-08T13:53:27.770Z,1624
2017-05-08T13:54:40.566Z,1640
2017-05-08T13:55:53.355Z,1604
2017-05-08T13:57:06.153Z,1596
2017-05-08T13:58:18.464Z,1572
2017-05-08T13:59:31.251Z,1612
2017-05-08T14:00:44.042Z,1640
2017-05-08T14:01:57.031Z,1616
2017-05-08T14:03:09.344Z,1596
2017-05-08T14:04:22.134Z,1604
2017-05-08T14:05:34.449Z,1592
2017-05-08T14:06:47.480Z,1596
2017-05-08T14:08:00.267Z,1652
2017-05-08T14:09:12.578Z,1584
2017-05-08T14:10:25.370Z,1648
2017-05-08T14:11:38.186Z,1656
2017-05-08T14:12:50.804Z,1676
2017-05-08T14:14:02.629Z,1628
2017-05-08T14:15:14.938Z,1632
2017-05-08T14:16:27.243Z,1636
2017-05-08T14:17:39.702Z,1648
2017-05-08T14:18:52.500Z,1632
2017-05-08T14:20:04.810Z,1608
2017-05-08T14:21:17.136Z,1600
2017-05-08T14:22:29.442Z,1516
2017-05-08T14:23:42.242Z,1508
2017-05-08T14:24:55.032Z,1572
2017-05-08T14:26:07.344Z,1592
2017-05-08T14:27:20.131Z,1612
2017-05-08T14:28:33.124Z,1556
2017-05-08T14:29:44.945Z,1580
2017-05-08T14:30:57.733Z,1664
2017-05-08T14:32:10.527Z,1632
2017-05-08T14:33:51.464Z,1612
2017-05-08T14:35:03.771Z,1632
2017-05-08T14:36:15.595Z,1576
2017-05-08T14:37:27.905Z,1588
2017-05-08T14:38:40.690Z,1600
2017-05-08T14:39:53.004Z,1576
2017-05-08T14:41:05.795Z,1536
2017-05-08T14:42:18.105Z,1520
2017-05-08T14:43:30.418Z,1484
2017-05-08T14:44:43.404Z,1480
2017-05-08T14:45:56.199Z,1488
2017-05-08T14:47:08.985Z,1468
2017-05-08T14:48:21.774Z,1476
2017-05-08T14:49:35.061Z,1444
2017-05-08T14:50:47.863Z,1400
2017-05-08T14:52:00.653Z,1324
2017-05-08T14:53:12.955Z,1308
2017-05-08T14:54:25.744Z,1264
2017-05-08T14:55:38.050Z,1264
2017-05-08T14:56:50.837Z,1200
2017-05-08T14:58:03.622Z,1180
2017-05-08T14:59:15.927Z,1188
2017-05-08T15:00:28.530Z,1212
2017-05-08T15:01:41.318Z,1184
2017-05-08T15:02:54.106Z,1140
2017-05-08T15:04:06.902Z,1108
2017-05-08T15:05:19.215Z,1112
2017-05-08T15:06:32.009Z,1100
2017-05-08T15:07:44.801Z,1076
2017-05-08T15:08:57.584Z,1064
2017-05-08T15:10:10.370Z,1016
2017-05-08T15:11:23.166Z,1012
2017-05-08T15:12:35.473Z,956
2017-05-08T15:13:48.256Z,952
2017-05-08T15:15:00.564Z,980
2017-05-08T15:16:12.869Z,964
2017-05-08T15:17:25.656Z,972
2017-05-08T15:18:38.441Z,956
2017-05-08T15:19:51.233Z,960
2017-05-08T15:21:03.535Z,916
2017-05-08T15:22:16.330Z,944
2017-05-08T15:23:28.632Z,956
2017-05-08T15:24:40.942Z,928
2017-05-08T15:25:53.730Z,892
2017-05-08T15:27:06.522Z,880
2017-05-08T15:28:19.467Z,892
2017-05-08T15:29:32.254Z,884
2017-05-08T15:30:44.557Z,876
2017-05-08T15:31:57.346Z,836
2017-05-08T15:33:10.136Z,840
2017-05-08T15:34:22.925Z,848
2017-05-08T15:35:35.714Z,808
2017-05-08T15:36:47.540Z,828
2017-05-08T15:37:59.849Z,824
2017-05-08T15:39:12.638Z,804
2017-05-08T15:40:25.421Z,796
2017-05-08T15:41:38.209Z,792
2017-05-08T15:42:50.518Z,792
2017-05-08T15:44:03.304Z,768
2017-05-08T15:45:16.392Z,748
2017-05-08T15:46:29.179Z,660
2017-05-08T15:47:41.482Z,676
2017-05-08T15:48:54.281Z,672
2017-05-08T15:50:07.071Z,672
2017-05-08T15:51:19.862Z,644
2017-05-08T15:52:31.692Z,628
2017-05-08T15:53:44.681Z,620
2017-05-08T15:54:57.465Z,604
2017-05-08T15:56:10.253Z,600
2017-05-08T15:57:23.058Z,588
2017-05-08T15:58:35.363Z,576
2017-05-08T15:59:48.151Z,568
2017-05-08T16:01:00.943Z,576
2017-05-08T16:02:13.735Z,552
2017-05-08T16:03:26.040Z,556
2017-05-08T16:04:38.830Z,556
2017-05-08T16:05:51.153Z,540
2017-05-08T16:07:03.947Z,540
2017-05-08T16:08:16.252Z,532
2017-05-08T16:09:29.040Z,540
2017-05-08T16:10:41.826Z,556
2017-05-08T16:11:54.611Z,564
2017-05-08T16:13:07.398Z,580
2017-05-08T16:14:19.701Z,588
2017-05-08T16:15:32.506Z,608
2017-05-08T16:16:45.290Z,620
2017-05-08T16:17:58.078Z,632
2017-05-08T16:19:10.862Z,628
2017-05-08T16:20:23.645Z,616
2017-05-08T16:21:36.732Z,580
2017-05-08T16:22:49.517Z,536
2017-05-08T16:24:01.818Z,564
2017-05-08T16:25:14.806Z,560
2017-05-08T16:26:27.794Z,560
2017-05-08T16:27:40.578Z,548
2017-05-08T16:28:53.368Z,512
2017-05-08T16:30:05.676Z,540
2017-05-08T16:31:18.459Z,592
2017-05-08T16:32:31.245Z,612
2017-05-08T16:33:44.038Z,592
2017-05-08T16:34:55.873Z,620
2017-05-08T16:36:08.659Z,604
2017-05-08T16:37:21.743Z,592
2017-05-08T16:38:34.527Z,580
2017-05-08T16:39:47.311Z,588
2017-05-08T16:41:00.095Z,580
2017-05-08T16:42:12.409Z,592
2017-05-08T16:43:25.195Z,600
2017-05-08T16:44:37.978Z,588
2017-05-08T16:45:50.766Z,600
2017-05-08T16:47:03.550Z,596
2017-05-08T16:48:16.535Z,584
2017-05-08T16:49:29.318Z,596
2017-05-08T16:50:42.120Z,596
2017-05-08T16:51:54.908Z,584
2017-05-08T16:53:07.693Z,584
2017-05-08T16:54:20.497Z,576
2017-05-08T16:55:32.319Z,476
2017-05-08T16:56:45.133Z,520
2017-05-08T16:57:57.918Z,520
2017-05-08T16:59:10.855Z,516